Time;durP1;ratioP1;P1;durP2;ratioP2;P2;SDS_P1;SDS_P2;PMS_P1;PMS_P2;Temp;Humidity;BMP_temperature;BMP_pressure;BME280_temperature;BME280_humidity;BME280_pressure;Samples;Min_cycle;Max_cycle;Signal;HPM_P1;HPM_P2
2022/08/09 00:01:28;;;;;;;4.68;3.13;;;17.50;99.90;;;;;;5014622;28;20168;-64
2022/08/09 00:03:54;;;;;;;6.28;3.05;;;17.50;99.90;;;;;;5013479;28;20198;-64
2022/08/09 00:06:20;;;;;;;3.88;2.80;;;17.40;99.90;;;;;;5013778;28;20184;-63
2022/08/09 00:08:48;;;;;;;4.70;3.30;;;17.40;99.90;;;;;;5014546;28;20200;-63
2022/08/09 00:11:15;;;;;;;5.95;3.60;;;17.30;99.90;;;;;;4996312;28;20187;-63
2022/08/09 00:13:41;;;;;;;4.05;3.50;;;17.20;99.90;;;;;;5013956;28;20263;-64
2022/08/09 00:16:07;;;;;;;4.45;3.38;;;17.10;99.90;;;;;;5013972;28;20212;-63
2022/08/09 00:18:33;;;;;;;6.88;3.75;;;17.00;99.90;;;;;;5013893;28;20199;-64
2022/08/09 00:20:59;;;;;;;4.22;3.50;;;16.90;99.90;;;;;;5013675;28;20221;-64
2022/08/09 00:23:25;;;;;;;4.07;3.67;;;16.80;99.90;;;;;;5014338;28;20263;-63
2022/08/09 00:25:50;;;;;;;5.82;4.00;;;16.70;99.90;;;;;;5013891;28;20195;-64
2022/08/09 00:28:16;;;;;;;5.45;3.83;;;16.70;99.90;;;;;;5013786;28;20210;-64
2022/08/09 00:30:42;;;;;;;5.72;4.40;;;16.60;99.90;;;;;;5013854;28;20168;-63
2022/08/09 00:33:07;;;;;;;5.95;4.05;;;16.50;99.90;;;;;;5014135;28;20171;-63
2022/08/09 00:35:33;;;;;;;6.75;4.10;;;16.50;99.90;;;;;;5013596;28;20533;-64
2022/08/09 00:37:59;;;;;;;6.15;4.65;;;16.40;99.90;;;;;;4996291;28;20203;-64
2022/08/09 00:40:25;;;;;;;5.95;4.25;;;16.30;99.90;;;;;;5014317;28;20684;-64
2022/08/09 00:42:50;;;;;;;7.30;4.00;;;16.30;99.90;;;;;;5014151;28;20664;-64
2022/08/09 00:45:16;;;;;;;5.95;4.43;;;16.20;99.90;;;;;;5014284;28;20184;-63
2022/08/09 00:47:43;;;;;;;6.05;4.68;;;16.20;99.90;;;;;;5013939;28;20192;-64
2022/08/09 00:50:09;;;;;;;5.43;4.70;;;16.20;99.90;;;;;;5014671;28;20215;-63
2022/08/09 00:52:36;;;;;;;7.00;4.05;;;16.20;99.90;;;;;;4996394;28;20184;-63
2022/08/09 00:55:02;;;;;;;4.75;3.83;;;16.20;99.90;;;;;;5014241;28;20168;-63
2022/08/09 00:57:29;;;;;;;6.03;3.92;;;16.30;99.90;;;;;;4995924;28;20302;-63
2022/08/09 00:59:55;;;;;;;5.80;4.47;;;16.20;99.90;;;;;;5013580;28;20168;-63
2022/08/09 01:02:25;;;;;;;6.13;4.43;;;16.10;99.90;;;;;;5013620;28;20600;-63
2022/08/09 01:05:08;;;;;;;5.32;3.72;;;16.10;99.90;;;;;;5013375;28;20637;-63
2022/08/09 01:07:58;;;;;;;6.85;3.95;;;16.20;99.90;;;;;;5013526;28;20208;-64
2022/08/09 01:10:26;;;;;;;4.65;3.90;;;16.20;99.90;;;;;;5014174;28;20214;-64
2022/08/09 01:12:59;;;;;;;5.80;4.10;;;16.10;99.90;;;;;;5016196;28;20179;-64
2022/08/09 01:15:33;;;;;;;7.03;4.10;;;16.10;99.90;;;;;;5016709;28;20164;-63
2022/08/09 01:18:11;;;;;;;5.18;4.20;;;16.00;99.90;;;;;;5017437;28;20195;-63
2022/08/09 01:20:46;;;;;;;5.07;3.63;;;16.00;99.90;;;;;;5017326;28;20156;-63
2022/08/09 01:23:43;;;;;;;7.47;4.43;;;16.00;99.90;;;;;;5017277;28;20187;-64
2022/08/09 01:26:37;;;;;;;5.53;3.80;;;15.90;99.90;;;;;;5017425;28;20234;-63
2022/08/09 01:29:05;;;;;;;5.68;3.70;;;15.90;99.90;;;;;;5017015;28;20640;-63
2022/08/09 01:31:33;;;;;;;5.00;4.10;;;16.00;99.90;;;;;;5017501;28;20175;-63
2022/08/09 01:34:01;;;;;;;7.38;4.07;;;16.00;99.90;;;;;;5017328;28;20226;-63
2022/08/09 01:36:30;;;;;;;6.72;3.85;;;15.90;99.90;;;;;;5016628;28;20198;-63
2022/08/09 01:38:58;;;;;;;4.78;3.70;;;15.90;99.90;;;;;;5017228;28;20246;-63
2022/08/09 01:41:34;;;;;;;7.25;4.00;;;15.90;99.90;;;;;;5017410;28;20171;-64
2022/08/09 01:44:03;;;;;;;6.68;4.10;;;15.80;99.90;;;;;;5017408;28;20167;-63
2022/08/09 01:46:36;;;;;;;4.60;3.70;;;15.70;99.90;;;;;;5016723;28;20180;-63
2022/08/09 01:49:09;;;;;;;6.90;4.30;;;15.60;99.90;;;;;;5016461;28;20696;-63
2022/08/09 01:51:36;;;;;;;4.90;3.88;;;15.70;99.90;;;;;;5016355;28;20207;-63
2022/08/09 01:54:04;;;;;;;3.97;3.47;;;15.60;99.90;;;;;;5016804;28;20180;-64
2022/08/09 01:56:32;;;;;;;5.15;3.67;;;15.70;99.90;;;;;;5016505;28;20247;-63
2022/08/09 01:59:02;;;;;;;6.95;3.92;;;15.70;99.90;;;;;;5031624;28;20208;-63
2022/08/09 02:01:30;;;;;;;5.05;3.75;;;15.70;99.90;;;;;;5016827;28;20172;-63
2022/08/09 02:03:58;;;;;;;6.43;3.67;;;15.60;99.90;;;;;;5016365;28;20172;-63
2022/08/09 02:09:12;;;;;;;6.03;4.03;;;15.50;99.90;;;;;;5017445;28;20710;-64
2022/08/09 02:11:38;;;;;;;4.10;3.53;;;15.40;99.90;;;;;;5016625;28;20640;-63
2022/08/09 02:14:06;;;;;;;4.78;3.58;;;15.40;99.90;;;;;;5016577;28;20176;-65
2022/08/09 02:16:35;;;;;;;4.20;3.58;;;15.40;99.90;;;;;;5016717;28;20640;-63
2022/08/09 02:19:02;;;;;;;4.95;4.30;;;15.40;99.90;;;;;;5016378;28;20236;-64
2022/08/09 02:21:32;;;;;;;4.82;3.35;;;15.40;99.90;;;;;;4998514;28;20187;-64
2022/08/09 02:24:02;;;;;;;5.03;3.58;;;15.40;99.90;;;;;;5016302;28;20174;-64
2022/08/09 02:26:32;;;;;;;4.18;3.75;;;15.40;99.90;;;;;;5015106;28;20668;-64
2022/08/09 02:29:02;;;;;;;5.85;4.13;;;15.30;99.90;;;;;;5030861;28;20211;-64
2022/08/09 02:31:32;;;;;;;4.60;3.67;;;15.30;99.90;;;;;;4998120;28;20242;-63
2022/08/09 02:34:07;;;;;;;3.90;3.50;;;15.20;99.90;;;;;;4999192;28;20520;-63
2022/08/09 02:36:38;;;;;;;5.03;3.90;;;15.20;99.90;;;;;;5015501;28;20207;-64
2022/08/09 02:39:07;;;;;;;5.60;3.72;;;15.10;99.90;;;;;;5016152;28;20619;-64
2022/08/09 02:41:43;;;;;;;8.55;4.70;;;15.00;99.90;;;;;;5015665;28;20209;-63
2022/08/09 02:44:21;;;;;;;5.72;4.38;;;14.90;99.90;;;;;;5015922;28;20195;-64
2022/08/09 02:46:50;;;;;;;3.78;3.33;;;14.90;99.90;;;;;;4997760;28;20175;-63
2022/08/09 02:49:20;;;;;;;5.22;3.80;;;14.90;99.90;;;;;;5015443;28;20203;-64
2022/08/09 02:51:57;;;;;;;4.43;3.65;;;14.90;99.90;;;;;;5015140;28;20593;-63
2022/08/09 02:54:24;;;;;;;5.45;3.92;;;14.80;99.90;;;;;;5015927;28;20222;-63
2022/08/09 02:56:52;;;;;;;4.13;3.70;;;14.80;99.90;;;;;;5015191;28;20179;-63
2022/08/09 02:59:19;;;;;;;7.13;4.10;;;14.80;99.90;;;;;;5015662;28;20183;-63
2022/08/09 03:01:46;;;;;;;5.13;3.78;;;14.80;99.90;;;;;;5015747;28;20222;-63
2022/08/09 03:04:13;;;;;;;9.07;4.38;;;14.80;99.90;;;;;;5015011;28;20183;-63
2022/08/09 03:06:41;;;;;;;6.63;4.38;;;14.70;99.90;;;;;;5014781;28;20184;-63
2022/08/09 03:09:09;;;;;;;5.85;4.03;;;14.70;99.90;;;;;;5015230;28;20213;-63
2022/08/09 03:11:36;;;;;;;6.20;4.10;;;14.70;99.90;;;;;;5015122;28;20184;-63
2022/08/09 03:14:03;;;;;;;5.25;4.13;;;14.60;99.90;;;;;;5014942;28;20176;-63
2022/08/09 03:16:30;;;;;;;5.45;4.57;;;14.60;99.90;;;;;;5014979;28;20218;-64
2022/08/09 03:18:56;;;;;;;5.35;4.22;;;14.60;99.90;;;;;;5014953;28;20214;-63
2022/08/09 03:21:23;;;;;;;4.50;3.72;;;14.60;99.90;;;;;;4996997;28;20184;-63
2022/08/09 03:23:49;;;;;;;4.47;3.80;;;14.60;99.90;;;;;;5015105;28;20189;-64
2022/08/09 03:26:17;;;;;;;5.88;4.50;;;14.60;99.90;;;;;;5030027;28;20183;-63
2022/08/09 03:28:45;;;;;;;6.18;4.00;;;14.60;99.90;;;;;;4996995;28;20207;-64
2022/08/09 03:31:11;;;;;;;6.38;4.00;;;14.50;99.90;;;;;;5015123;28;20157;-63
2022/08/09 03:33:38;;;;;;;7.60;4.40;;;14.40;99.90;;;;;;5014943;28;20180;-63
2022/08/09 03:36:06;;;;;;;6.13;4.93;;;14.40;99.90;;;;;;5014332;28;20641;-63
2022/08/09 03:38:33;;;;;;;6.18;4.60;;;14.20;99.90;;;;;;5013466;28;20295;-63
2022/08/09 03:40:59;;;;;;;6.47;4.35;;;14.10;99.90;;;;;;5014759;28;20171;-63
2022/08/09 03:43:26;;;;;;;6.75;4.55;;;14.10;99.90;;;;;;5014770;28;20505;-64
2022/08/09 03:45:52;;;;;;;6.47;4.38;;;14.20;99.90;;;;;;5014351;28;20215;-63
2022/08/09 03:48:20;;;;;;;6.45;4.47;;;14.20;99.90;;;;;;5014965;28;20731;-64
2022/08/09 03:50:47;;;;;;;4.75;3.90;;;14.30;99.90;;;;;;5014112;28;20175;-63
2022/08/09 03:53:15;;;;;;;5.43;4.25;;;14.30;99.90;;;;;;5029379;28;20645;-64
2022/08/09 03:55:41;;;;;;;6.13;3.95;;;14.30;99.90;;;;;;5014388;28;20202;-64
2022/08/09 03:58:07;;;;;;;8.05;4.55;;;14.30;99.90;;;;;;5014378;28;20208;-63
2022/08/09 04:00:33;;;;;;;8.05;4.47;;;14.20;99.90;;;;;;5014100;28;20191;-64
2022/08/09 04:03:00;;;;;;;5.30;4.47;;;14.10;99.90;;;;;;5014189;28;20531;-63
2022/08/09 04:05:25;;;;;;;5.22;4.15;;;14.00;99.90;;;;;;5014282;28;20259;-64
2022/08/09 04:07:52;;;;;;;4.90;4.22;;;13.90;99.90;;;;;;5013772;28;20243;-64
2022/08/09 04:10:21;;;;;;;4.78;3.92;;;13.90;99.90;;;;;;5014099;28;20190;-64
2022/08/09 04:12:49;;;;;;;6.55;4.38;;;13.90;99.90;;;;;;5014394;28;20216;-64
2022/08/09 04:15:16;;;;;;;6.32;5.00;;;14.00;99.90;;;;;;5014193;28;20176;-64
2022/08/09 04:17:42;;;;;;;5.82;4.60;;;14.00;99.90;;;;;;5014087;28;20195;-63
2022/08/09 04:20:10;;;;;;;6.10;4.75;;;14.00;99.90;;;;;;5013792;28;20178;-63
2022/08/09 04:22:36;;;;;;;9.00;4.90;;;14.10;99.90;;;;;;5013818;28;20168;-64
2022/08/09 04:25:03;;;;;;;5.20;4.43;;;14.00;99.90;;;;;;5013851;28;20258;-64
2022/08/09 04:27:29;;;;;;;8.23;4.80;;;13.90;99.90;;;;;;4996076;28;20672;-64
2022/08/09 04:29:55;;;;;;;6.60;4.13;;;13.90;99.90;;;;;;5013774;28;20199;-64
2022/08/09 04:32:21;;;;;;;6.50;4.20;;;13.80;99.90;;;;;;5013839;28;20539;-64
2022/08/09 04:34:47;;;;;;;5.38;4.40;;;13.80;99.90;;;;;;5014054;28;20172;-63
2022/08/09 04:37:12;;;;;;;7.45;4.35;;;13.90;99.90;;;;;;5013330;28;20664;-63
2022/08/09 04:39:38;;;;;;;7.25;4.35;;;13.80;99.90;;;;;;5013736;28;20669;-63
2022/08/09 04:42:04;;;;;;;7.50;4.75;;;13.80;99.90;;;;;;5014268;28;20225;-64
2022/08/09 04:44:30;;;;;;;7.15;4.80;;;13.80;99.90;;;;;;5013915;28;20560;-63
2022/08/09 04:46:56;;;;;;;6.22;4.15;;;13.80;99.90;;;;;;5014151;28;20254;-63
2022/08/09 04:49:22;;;;;;;7.90;4.70;;;13.70;99.90;;;;;;5015181;28;20286;-63
2022/08/09 04:51:48;;;;;;;6.53;5.22;;;13.70;99.90;;;;;;5017406;28;20250;-64
2022/08/09 04:54:13;;;;;;;12.57;4.97;;;13.70;99.90;;;;;;5017528;28;20175;-63
2022/08/09 04:56:39;;;;;;;7.00;5.00;;;13.70;99.90;;;;;;5017610;28;20188;-63
2022/08/09 04:59:05;;;;;;;7.40;5.07;;;13.70;99.90;;;;;;5017441;28;20559;-64
2022/08/09 05:01:31;;;;;;;6.93;5.38;;;13.70;99.90;;;;;;5017537;28;20179;-64
2022/08/09 05:03:56;;;;;;;7.82;5.57;;;13.80;99.90;;;;;;5017899;28;20252;-64
2022/08/09 05:06:22;;;;;;;6.22;5.53;;;13.80;99.90;;;;;;5017102;28;20175;-63
2022/08/09 05:08:48;;;;;;;7.22;5.25;;;13.70;99.90;;;;;;5017265;28;20206;-63
2022/08/09 05:11:14;;;;;;;10.45;5.93;;;13.80;99.90;;;;;;5017596;28;20179;-64
2022/08/09 05:13:40;;;;;;;7.13;6.10;;;13.90;99.90;;;;;;5017258;28;20214;-63
2022/08/09 05:16:09;;;;;;;9.82;6.20;;;13.80;99.90;;;;;;5017396;28;20179;-63
2022/08/09 05:18:35;;;;;;;8.40;5.95;;;13.80;99.90;;;;;;5017141;28;20291;-64
2022/08/09 05:21:03;;;;;;;8.98;5.50;;;13.90;99.90;;;;;;5016977;28;20242;-62
2022/08/09 05:23:29;;;;;;;7.28;5.57;;;13.90;99.90;;;;;;5016919;28;20214;-61
2022/08/09 05:25:54;;;;;;;8.30;5.90;;;14.00;99.90;;;;;;4999401;28;20253;-61
2022/08/09 05:28:20;;;;;;;10.45;6.15;;;14.10;99.90;;;;;;5016984;28;20267;-61
2022/08/09 05:30:47;;;;;;;9.52;6.20;;;14.10;99.90;;;;;;5017220;28;20179;-62
2022/08/09 05:33:13;;;;;;;9.07;5.93;;;14.20;99.90;;;;;;5017247;28;20156;-62
2022/08/09 05:35:39;;;;;;;10.75;5.82;;;14.30;99.90;;;;;;4999615;28;20180;-64
2022/08/09 05:38:04;;;;;;;7.93;5.50;;;14.40;99.90;;;;;;5016820;28;20200;-63
2022/08/09 05:40:31;;;;;;;7.00;6.00;;;14.50;99.90;;;;;;5017052;28;20572;-63
2022/08/09 05:42:57;;;;;;;6.63;5.68;;;14.60;99.90;;;;;;5017049;28;20664;-64
2022/08/09 05:45:23;;;;;;;11.90;5.97;;;14.70;99.90;;;;;;4999023;28;20184;-63
2022/08/09 05:47:49;;;;;;;9.18;5.93;;;14.80;99.90;;;;;;5016511;28;20195;-63
2022/08/09 05:50:15;;;;;;;8.48;6.40;;;14.90;99.90;;;;;;5016295;28;20230;-62
2022/08/09 05:52:42;;;;;;;9.18;5.75;;;15.00;99.90;;;;;;5016759;28;20179;-63
2022/08/09 05:55:09;;;;;;;8.90;5.97;;;15.00;99.90;;;;;;4998625;28;20184;-64
2022/08/09 05:57:36;;;;;;;8.43;5.70;;;15.10;99.90;;;;;;5016797;28;20258;-64
2022/08/09 06:00:04;;;;;;;7.18;5.72;;;15.20;99.90;;;;;;4998165;28;20188;-63
2022/08/09 06:02:30;;;;;;;7.82;6.03;;;15.30;99.90;;;;;;5016033;28;20679;-64
2022/08/09 06:04:56;;;;;;;6.85;5.78;;;15.40;99.90;;;;;;5016326;28;20200;-63
2022/08/09 06:07:22;;;;;;;9.52;5.30;;;15.50;99.90;;;;;;5015902;28;20281;-63
2022/08/09 06:09:48;;;;;;;8.57;5.38;;;15.70;99.90;;;;;;5016321;28;20290;-63
2022/08/09 06:12:14;;;;;;;7.80;6.00;;;15.80;99.90;;;;;;4998699;28;20176;-63
2022/08/09 06:14:40;;;;;;;6.22;4.70;;;15.90;99.90;;;;;;4998396;28;20172;-64
2022/08/09 06:17:06;;;;;;;9.63;5.32;;;16.00;99.90;;;;;;5016543;28;20640;-65
2022/08/09 06:19:31;;;;;;;7.53;5.75;;;16.10;99.90;;;;;;5016299;28;20187;-65
2022/08/09 06:21:57;;;;;;;7.35;5.03;;;16.20;99.90;;;;;;4998220;28;20214;-65
2022/08/09 06:24:23;;;;;;;8.10;5.10;;;16.30;99.90;;;;;;5016384;28;20172;-65
2022/08/09 06:26:49;;;;;;;10.05;6.38;;;16.40;99.90;;;;;;4998302;28;20274;-65
2022/08/09 06:29:18;;;;;;;9.63;6.07;;;16.50;99.90;;;;;;5015822;28;20354;-65
2022/08/09 06:31:44;;;;;;;9.55;5.57;;;16.60;99.90;;;;;;5016301;28;20183;-61
2022/08/09 06:34:10;;;;;;;7.47;5.20;;;16.70;99.90;;;;;;5016349;28;20172;-62
2022/08/09 06:36:36;;;;;;;7.53;5.07;;;16.80;99.90;;;;;;5015360;28;20176;-61
2022/08/09 06:39:02;;;;;;;6.55;4.65;;;16.80;99.90;;;;;;5015547;28;20199;-62
2022/08/09 06:41:28;;;;;;;7.88;5.45;;;16.90;99.90;;;;;;5015585;28;20676;-61
2022/08/09 06:43:54;;;;;;;10.95;5.75;;;17.00;99.90;;;;;;4997888;28;20183;-62
2022/08/09 06:46:20;;;;;;;8.98;5.45;;;17.00;99.90;;;;;;5015420;28;20168;-62
2022/08/09 06:48:46;;;;;;;6.05;5.10;;;17.10;99.90;;;;;;5015184;28;20268;-62
2022/08/09 06:51:12;;;;;;;7.97;4.85;;;17.20;99.90;;;;;;5015047;28;20184;-61
2022/08/09 06:53:38;;;;;;;8.45;4.82;;;17.30;99.90;;;;;;4997661;28;20179;-62
2022/08/09 06:56:06;;;;;;;10.93;6.10;;;17.40;99.90;;;;;;4997621;28;20262;-61
2022/08/09 06:58:33;;;;;;;5.90;4.88;;;17.40;99.90;;;;;;4997560;28;20211;-61
2022/08/09 07:00:58;;;;;;;7.70;5.20;;;17.50;99.90;;;;;;5015141;28;20178;-62
2022/08/09 07:03:25;;;;;;;9.23;5.45;;;17.60;99.90;;;;;;5015581;28;20172;-61
2022/08/09 07:05:51;;;;;;;8.02;5.78;;;17.70;99.90;;;;;;5030105;28;20186;-61
2022/08/09 07:08:16;;;;;;;5.85;4.72;;;17.80;99.90;;;;;;5014900;28;20571;-61
2022/08/09 07:10:43;;;;;;;6.05;4.93;;;17.90;99.90;;;;;;5015574;28;20208;-61
2022/08/09 07:13:09;;;;;;;7.45;5.47;;;18.00;99.90;;;;;;5014939;28;20247;-62
2022/08/09 07:15:35;;;;;;;8.23;5.57;;;18.00;99.90;;;;;;5015002;28;20598;-61
2022/08/09 07:18:01;;;;;;;8.05;5.63;;;18.10;99.90;;;;;;5014856;28;20187;-61
2022/08/09 07:20:27;;;;;;;7.30;5.30;;;18.20;99.90;;;;;;5015238;28;20667;-62
2022/08/09 07:22:53;;;;;;;8.15;5.93;;;18.20;99.90;;;;;;5014626;28;20204;-62
2022/08/09 07:25:19;;;;;;;7.88;6.20;;;18.30;99.90;;;;;;5014799;28;20179;-62
2022/08/09 07:27:45;;;;;;;9.10;5.78;;;18.40;99.90;;;;;;4997348;28;20565;-61
2022/08/09 07:30:12;;;;;;;7.70;5.75;;;18.50;99.90;;;;;;5014909;28;20196;-61
2022/08/09 07:32:39;;;;;;;9.80;5.30;;;18.60;99.90;;;;;;5015807;28;20174;-61
2022/08/09 07:35:08;;;;;;;7.35;4.82;;;18.60;99.90;;;;;;5015241;28;20195;-62
2022/08/09 07:37:34;;;;;;;9.23;5.28;;;18.70;99.90;;;;;;5014503;28;20254;-62
2022/08/09 07:40:00;;;;;;;10.02;5.20;;;18.80;99.90;;;;;;5031002;28;20176;-62
2022/08/09 07:42:26;;;;;;;7.70;5.40;;;18.90;99.90;;;;;;4998144;28;20219;-61
2022/08/09 07:44:52;;;;;;;6.00;4.85;;;19.00;99.90;;;;;;5015030;28;20188;-61
2022/08/09 07:47:18;;;;;;;6.75;4.97;;;19.10;99.90;;;;;;5015369;28;20283;-62
2022/08/09 07:49:44;;;;;;;7.65;4.40;;;19.10;99.90;;;;;;5014850;28;20206;-62
2022/08/09 07:52:09;;;;;;;6.10;4.50;;;19.20;99.90;;;;;;5014289;28;20171;-62
2022/08/09 07:54:37;;;;;;;9.45;5.50;;;19.30;99.90;;;;;;5014563;28;20175;-62
2022/08/09 07:57:03;;;;;;;10.77;4.95;;;19.30;99.90;;;;;;5014285;28;20196;-62
2022/08/09 07:59:28;;;;;;;6.53;4.93;;;19.40;99.90;;;;;;5014194;28;20203;-63
2022/08/09 08:01:54;;;;;;;8.10;5.13;;;19.50;99.90;;;;;;5014425;28;20222;-62
2022/08/09 08:04:21;;;;;;;8.68;5.32;;;19.60;99.90;;;;;;5014356;28;20200;-61
2022/08/09 08:06:47;;;;;;;9.35;5.07;;;19.60;99.90;;;;;;4996336;28;20195;-61
2022/08/09 08:09:13;;;;;;;8.05;5.78;;;19.70;99.90;;;;;;5014041;28;20334;-62
2022/08/09 08:11:39;;;;;;;7.78;5.13;;;19.70;99.90;;;;;;4999274;28;20243;-61
2022/08/09 08:14:05;;;;;;;9.20;5.32;;;19.80;99.90;;;;;;5014354;28;20674;-61
2022/08/09 08:16:31;;;;;;;7.05;5.00;;;19.90;99.90;;;;;;5014551;28;20255;-61
2022/08/09 08:18:57;;;;;;;7.82;5.60;;;20.00;99.90;;;;;;5016966;28;20286;-64
2022/08/09 08:21:23;;;;;;;10.25;5.32;;;20.00;99.90;;;;;;5014277;28;20179;-64
2022/08/09 08:23:49;;;;;;;6.32;5.13;;;20.10;99.90;;;;;;5013715;28;20175;-64
2022/08/09 08:26:15;;;;;;;6.72;4.93;;;20.20;99.90;;;;;;5015261;28;20175;-61
2022/08/09 08:28:41;;;;;;;5.95;4.20;;;20.20;99.90;;;;;;4997516;28;20246;-60
2022/08/09 08:31:07;;;;;;;7.40;4.85;;;20.30;99.90;;;;;;5017045;28;20164;-62
2022/08/09 08:33:33;;;;;;;7.78;5.57;;;20.40;99.90;;;;;;5018302;28;20660;-64
2022/08/09 08:35:58;;;;;;;6.80;4.55;;;20.40;99.90;;;;;;4998713;28;20571;-64
2022/08/09 08:38:24;;;;;;;5.50;3.80;;;20.50;99.90;;;;;;5015120;28;20207;-64
2022/08/09 08:40:54;;;;;;;8.55;4.85;;;20.60;99.90;;;;;;4997369;28;20183;-64
2022/08/09 08:43:20;;;;;;;6.60;4.05;;;20.70;99.90;;;;;;5015870;28;20159;-64
2022/08/09 08:45:52;;;;;;;10.27;4.72;;;20.80;99.90;;;;;;5016918;28;20175;-64
2022/08/09 08:48:18;;;;;;;8.43;4.47;;;20.90;99.90;;;;;;5030907;28;20210;-64
2022/08/09 08:50:46;;;;;;;6.95;4.88;;;21.00;99.90;;;;;;5015364;28;20179;-64
2022/08/09 08:53:14;;;;;;;7.43;4.80;;;21.10;99.90;;;;;;5015420;28;20195;-65
2022/08/09 08:55:42;;;;;;;5.88;4.43;;;21.30;99.90;;;;;;5015287;28;20260;-64
2022/08/09 08:58:09;;;;;;;6.60;4.80;;;21.40;99.90;;;;;;5029565;28;20668;-64
2022/08/09 09:00:35;;;;;;;7.93;4.95;;;21.50;99.90;;;;;;5015461;28;20156;-64
2022/08/09 09:03:04;;;;;;;7.25;4.30;;;21.50;99.90;;;;;;5016502;28;20214;-64
2022/08/09 09:05:30;;;;;;;6.38;3.85;;;21.60;99.90;;;;;;5016372;28;20239;-64
2022/08/09 09:08:02;;;;;;;9.60;4.78;;;21.80;99.90;;;;;;5015810;28;20544;-64
2022/08/09 09:10:30;;;;;;;6.65;4.80;;;22.00;99.90;;;;;;5030453;28;20641;-64
2022/08/09 09:12:56;;;;;;;5.53;4.07;;;22.30;99.90;;;;;;4997839;28;20252;-65
2022/08/09 09:15:22;;;;;;;5.30;3.75;;;22.50;99.90;;;;;;5014653;28;20186;-64
2022/08/09 09:17:48;;;;;;;7.25;4.47;;;22.70;99.90;;;;;;5014625;28;20271;-64
2022/08/09 09:20:14;;;;;;;5.85;4.00;;;22.80;99.90;;;;;;4997345;28;20238;-64
2022/08/09 09:22:57;;;;;;;5.53;3.85;;;23.00;99.90;;;;;;5014511;28;20183;-64
2022/08/09 09:25:36;;;;;;;8.00;5.07;;;23.20;99.90;;;;;;5029790;28;20179;-64
2022/08/09 09:28:04;;;;;;;7.90;4.80;;;23.40;99.90;;;;;;5014287;28;20282;-64
2022/08/09 09:30:32;;;;;;;4.80;3.60;;;23.50;99.90;;;;;;5014763;28;20156;-64
2022/08/09 09:33:06;;;;;;;5.45;3.55;;;23.60;99.90;;;;;;4997041;28;20271;-64
2022/08/09 09:35:32;;;;;;;6.88;4.03;;;23.80;99.90;;;;;;4998603;28;20175;-64
2022/08/09 09:37:58;;;;;;;8.32;4.28;;;24.00;99.90;;;;;;5017396;28;20204;-64
2022/08/09 09:40:43;;;;;;;7.45;5.07;;;24.10;99.90;;;;;;5018805;28;20574;-64
2022/08/09 09:43:18;;;;;;;6.70;3.55;;;24.30;99.90;;;;;;5000331;28;20180;-64
2022/08/09 09:45:52;;;;;;;5.78;3.50;;;24.40;99.90;;;;;;5033004;28;20175;-64
2022/08/09 09:48:19;;;;;;;5.22;3.45;;;24.50;99.90;;;;;;5000158;28;20191;-64
2022/08/09 09:50:47;;;;;;;5.43;3.45;;;24.70;99.90;;;;;;5018301;28;20206;-64
2022/08/09 09:53:24;;;;;;;10.13;3.85;;;24.80;99.90;;;;;;5018045;28;20164;-64
2022/08/09 09:55:58;;;;;;;4.90;3.72;;;24.80;99.90;;;;;;5033584;28;20557;-64
2022/08/09 09:58:41;;;;;;;8.45;3.75;;;24.90;99.90;;;;;;5000665;28;20210;-64
2022/08/09 10:01:19;;;;;;;5.05;3.67;;;24.90;99.90;;;;;;5018562;28;20519;-64
2022/08/09 10:03:48;;;;;;;6.20;3.35;;;24.90;99.90;;;;;;5018423;28;20163;-64
2022/08/09 10:06:14;;;;;;;6.28;3.15;;;25.00;99.90;;;;;;5018010;28;20175;-64
2022/08/09 10:08:42;;;;;;;5.10;3.42;;;25.10;99.90;;;;;;5000379;28;20574;-64
2022/08/09 10:11:28;;;;;;;7.43;3.47;;;25.20;99.90;;;;;;5018656;28;20575;-64
2022/08/09 10:13:54;;;;;;;5.80;3.30;;;25.30;99.90;;;;;;5018471;28;20156;-64
2022/08/09 10:16:26;;;;;;;7.00;3.83;;;25.40;99.90;;;;;;5018152;28;20179;-64
2022/08/09 10:18:54;;;;;;;5.20;3.45;;;25.40;99.90;;;;;;4999711;28;20204;-64
2022/08/09 10:21:21;;;;;;;5.72;3.78;;;25.30;99.90;;;;;;5017769;28;20617;-64
2022/08/09 10:23:48;;;;;;;5.05;3.17;;;25.30;99.90;;;;;;5017590;28;20175;-64
2022/08/09 10:26:14;;;;;;;9.18;4.07;;;25.40;99.90;;;;;;5000712;28;20270;-64
2022/08/09 10:28:42;;;;;;;4.22;3.33;;;25.30;99.90;;;;;;5018071;28;20262;-64
2022/08/09 10:31:12;;;;;;;3.78;3.05;;;25.40;99.90;;;;;;5017671;28;20195;-64
2022/08/09 10:33:39;;;;;;;4.90;3.33;;;25.40;99.90;;;;;;5032751;28;20182;-64
2022/08/09 10:36:06;;;;;;;4.47;3.00;;;25.50;99.90;;;;;;5017708;28;20195;-64
2022/08/09 10:38:33;;;;;;;5.50;3.40;;;25.50;99.90;;;;;;5032346;28;20253;-64
2022/08/09 10:40:59;;;;;;;5.22;3.60;;;25.60;99.90;;;;;;5017608;28;20245;-64
2022/08/09 10:43:27;;;;;;;5.60;3.88;;;25.70;99.90;;;;;;5016945;28;20198;-64
2022/08/09 10:45:53;;;;;;;4.60;3.50;;;25.60;99.90;;;;;;5016805;28;20187;-64
2022/08/09 10:48:34;;;;;;;5.70;3.33;;;25.70;99.90;;;;;;5016113;28;20201;-64
2022/08/09 10:51:08;;;;;;;4.45;3.65;;;25.60;99.90;;;;;;5016958;28;20188;-64
2022/08/09 10:53:40;;;;;;;4.38;3.65;;;25.70;99.90;;;;;;5017166;28;20151;-64
2022/08/09 10:56:34;;;;;;;4.82;3.08;;;25.60;99.90;;;;;;5017170;28;20187;-64
2022/08/09 10:59:20;;;;;;;4.25;3.28;;;25.50;99.90;;;;;;4996924;28;20216;-64
2022/08/09 11:01:50;;;;;;;5.22;3.20;;;25.60;99.90;;;;;;5016921;28;20187;-64
2022/08/09 11:04:27;;;;;;;5.00;3.35;;;25.70;99.90;;;;;;5031781;28;20186;-64
2022/08/09 11:07:02;;;;;;;5.53;3.60;;;25.80;99.90;;;;;;5016784;28;20758;-64
2022/08/09 11:09:37;;;;;;;6.75;3.53;;;25.90;99.90;;;;;;5016579;28;20560;-64
2022/08/09 11:12:27;;;;;;;8.23;3.92;;;25.90;99.90;;;;;;4998287;28;20648;-65
2022/08/09 11:15:00;;;;;;;7.15;3.55;;;26.00;99.90;;;;;;5016416;28;20161;-61
2022/08/09 11:17:26;;;;;;;4.28;3.50;;;26.10;99.90;;;;;;5015144;28;20200;-62
2022/08/09 11:20:00;;;;;;;7.18;3.95;;;26.30;99.90;;;;;;5015411;28;20240;-60
2022/08/09 11:22:43;;;;;;;7.47;3.47;;;26.50;99.90;;;;;;5030606;28;20182;-66
2022/08/09 11:25:16;;;;;;;9.52;3.45;;;26.60;99.90;;;;;;5015355;28;20164;-61
2022/08/09 11:27:48;;;;;;;5.82;3.22;;;26.70;99.90;;;;;;4998002;28;20207;-63
2022/08/09 11:30:20;;;;;;;6.30;3.60;;;26.80;99.90;;;;;;5014844;28;20195;-62
2022/08/09 11:32:53;;;;;;;5.80;3.33;;;26.90;99.90;;;;;;4996951;28;20172;-63
2022/08/09 11:35:20;;;;;;;4.35;3.17;;;27.10;99.90;;;;;;5014617;28;20160;-63
2022/08/09 11:37:48;;;;;;;8.05;3.83;;;27.30;99.90;;;;;;5014210;28;20567;-62
2022/08/09 11:40:28;;;;;;;7.18;3.50;;;27.10;99.90;;;;;;4996854;28;20182;-62
2022/08/09 11:42:57;;;;;;;4.35;3.03;;;27.20;99.90;;;;;;5014707;28;20171;-62
2022/08/09 11:45:31;;;;;;;5.18;3.15;;;27.30;99.90;;;;;;5014358;28;20218;-63
2022/08/09 11:47:59;;;;;;;4.82;3.17;;;27.50;99.90;;;;;;5015043;28;20282;-63
2022/08/09 11:50:27;;;;;;;4.97;3.38;;;27.70;99.90;;;;;;5014478;28;20188;-63
2022/08/09 11:52:58;;;;;;;4.28;2.83;;;27.60;99.90;;;;;;5014099;28;20164;-63
2022/08/09 11:55:38;;;;;;;4.60;3.00;;;27.80;99.90;;;;;;5014559;28;20156;-65
2022/08/09 11:58:10;;;;;;;5.90;3.05;;;27.80;99.90;;;;;;5014609;28;20198;-64
2022/08/09 12:00:46;;;;;;;4.18;2.90;;;28.00;99.90;;;;;;5014441;28;20660;-65
2022/08/09 12:03:16;;;;;;;8.43;3.95;;;28.20;99.90;;;;;;4997410;28;20179;-64
2022/08/09 12:05:42;;;;;;;3.95;3.10;;;28.40;99.90;;;;;;5014989;28;20168;-65
2022/08/09 12:08:09;;;;;;;4.00;3.10;;;28.70;99.90;;;;;;5014143;28;20681;-65
2022/08/09 12:10:41;;;;;;;4.15;3.17;;;28.80;99.90;;;;;;5014763;28;20210;-65
2022/08/09 12:13:06;;;;;;;4.18;3.30;;;29.00;99.90;;;;;;5014630;28;20160;-65
2022/08/09 12:15:32;;;;;;;4.15;2.80;;;29.10;99.90;;;;;;4996520;28;20180;-64
2022/08/09 12:17:59;;;;;;;7.88;3.40;;;29.30;99.90;;;;;;5014667;28;20207;-64
2022/08/09 12:20:26;;;;;;;3.67;2.90;;;29.40;99.90;;;;;;5014242;28;20179;-65
2022/08/09 12:22:58;;;;;;;6.47;2.83;;;29.40;99.90;;;;;;5014211;28;20178;-65
2022/08/09 12:25:26;;;;;;;4.82;3.00;;;29.30;99.90;;;;;;5014986;28;20156;-65
2022/08/09 12:28:15;;;;;;;5.28;2.92;;;29.30;99.90;;;;;;5014133;28;20304;-65
2022/08/09 12:30:41;;;;;;;4.75;2.97;;;29.40;99.90;;;;;;5014325;28;20531;-65
2022/08/09 12:33:08;;;;;;;3.20;2.60;;;29.50;99.90;;;;;;5014205;28;20167;-65
2022/08/09 12:35:35;;;;;;;6.50;3.00;;;29.80;99.90;;;;;;4996276;28;20613;-65
2022/08/09 12:38:15;;;;;;;4.63;3.05;;;29.90;99.90;;;;;;5013634;28;20261;-65
2022/08/09 12:40:46;;;;;;;4.88;2.80;;;30.10;99.90;;;;;;5014384;28;20182;-64
2022/08/09 12:43:17;;;;;;;3.65;2.63;;;30.30;99.90;;;;;;5014278;28;20171;-65
2022/08/09 12:45:45;;;;;;;4.80;3.38;;;30.20;99.90;;;;;;5014319;28;20179;-65
2022/08/09 12:48:12;;;;;;;3.95;3.00;;;30.10;99.90;;;;;;5013895;28;20334;-64
2022/08/09 12:50:39;;;;;;;5.78;3.13;;;30.10;99.90;;;;;;4996739;28;20186;-65
2022/08/09 12:53:21;;;;;;;4.55;3.10;;;29.90;99.90;;;;;;5013993;28;20641;-65
2022/08/09 12:55:47;;;;;;;5.82;3.15;;;29.90;99.90;;;;;;5013723;28;20191;-62